Portada
METAR-TAF:

METAR-TAF

Aeroports :

Granada, Espanya

latitud: 37-11N, longitud: 003-47W, altitud: 567 m

Observació

L'informe es va fer fa 24 minuts, a les 19:00 UTC
Vent calma
Temperatura 11°C
Humitat 82%
Pressió 1026 hPa
Visibilitat 10 km o més
sense núvols per sota de 1500 mi sense presència de cumulonimbus.

METAR: LEGR 101900Z 00000KT CAVOK 11/08 Q1026

Hora: 20:24 (19:24 UTC)

Pronòstic

L'informe es va fer fa 5 hores i 24 minuts, a les 14:00 UTC
Pronòstic vàlid del 10 a les 15 UTC al 11 a les 15 UTC
Vent 2 kt amb direcció variable
Visibilitat 10 km o més
sense núvols per sota de 1500 mi sense presència de cumulonimbus.

TAF: LEGR 101400Z 1015/1115 VRB02KT CAVOK TX21/1015Z TN00/1107Z

Observacions i pronòstics meteorològics de més de 4000 aeroports (METAR i TAF).

Les estacions disponibles són els punts grocs i vermells al mapa.

Posi el ratolí al punt desitjat per veure el nom de l'estació.

Feu clic per veure les observacions i els pronòstics meteorològics.

Per canviar el mapa: feu clic els botons verds amb una creu de color negre per apropar; al botó verd amb un guió per allunyar la imatge; o en les fletxes verdes per a mapes adjacents.


METAR-TAF: